• Join FlightAware (Why Join?)
  • Login
  • US Flag 
01:08AM EDT


 

Airport Tracker/Info


-or-


 

Live Flight TrackerFlight Track Log ✈ PDT4373 ✈ 14-Oct-2013 ✈ KBGM - KPHL

Flight Track Log - Related Links

Times and Time Zones

All times are in EDT time to prevent confusion due to time zone crossing. See the PDT4373 flight status page for this flight to view local times or setup timezone preferences in your user account.

Time Position Orientation Groundspeed Altitude Reporting Facility
EDT Latitude Longitude Course Direction KTS MPH feet Rate Location/Type
12:09PM 41.4604 -75.7371 162° South  Level Estimated
12:10PM 41.2733 -75.6774 163° South  Level Estimated
12:11PM 41.0861 -75.6180 190° South  Level Estimated
12:12PM 40.8990 -75.5589 187° South  Level Estimated
12:13PM 40.7118 -75.5002 190° South  Level Estimated
12:14PM 40.5246 -75.4418 143° Southeast  Level Estimated
12:15PM 40.3373 -75.3837 159° South  Level Estimated
12:16PM 40.1500 -75.3259 150° Southeast  Level Estimated
12:17PM 39.9627 -75.2685 150° Southeast  Level Estimated
12:18PM 39.8667 -75.2333 150° Southeast  Level FlightAware Approximate
12:19PM 39.8722 -75.2409 150° Southeast  Level Estimated
12:20PM 39.8722 -75.2409 150° Southeast  Level Estimated
12:21PM 39.8722 -75.2409 150° Southeast  Level Estimated
12:22PM 39.8722 -75.2409 150° Southeast  Level Estimated
12:23PM 39.8722 -75.2409 150° Southeast  Level Estimated
12:24PM 39.8722 -75.2409 150° Southeast  Level Estimated
12:25PM 39.8722 -75.2409 150° Southeast  Level Estimated
12:26PM 39.8722 -75.2409 150° Southeast  Level Estimated
12:27PM 39.8722 -75.2409 150° Southeast  Level Estimated
12:28PM 39.8722 -75.2409 150° Southeast  Level Estimated
12:29PM 39.8722 -75.2409 150° Southeast  Level Estimated
12:30PM 39.8722 -75.2409 150° Southeast  Level Estimated
12:31PM 39.8722 -75.2409 150° Southeast  Level Estimated
12:31PM 40.7000 -75.4500 150° Southeast 225 259 7,900  Level Philadelphia TRACON
12:32PM 39.8722 -75.2409 150° Southeast  Level Estimated
12:32PM 40.6833 -75.4667 217° Southwest 240 276 7,700  Level Philadelphia TRACON
12:33PM 39.8722 -75.2409 150° Southeast  Level Estimated
12:33PM 40.6167 -75.4833 191° South 239 275 7,000  Level Philadelphia TRACON
12:33PM 40.5667 -75.4833 180° South 244 281 6,400 -720 Descending Philadelphia TRACON
12:34PM 39.8722 -75.2409 150° Southeast  Level Estimated
12:34PM 40.4833 -75.5000 189° South 247 284 5,700  Level Philadelphia TRACON
12:35PM 40.4167 -75.5000 180° South 238 274 5,000 -360 Descending Philadelphia TRACON
12:37PM 40.3500 -75.4667 159° South 219 252 5,000  Level Philadelphia TRACON
12:38PM 40.3000 -75.4500 166° South 221 254 5,100  Climbing Philadelphia TRACON
12:39PM 40.2333 -75.4500 180° South 223 257 5,000 -60 Descending Philadelphia TRACON
12:40PM 40.1667 -75.4333 169° South 223 257 5,000  Level Philadelphia TRACON
12:41PM 40.1000 -75.4167 169° South 221 254 5,000 -360 Level Philadelphia TRACON
12:42PM 40.0500 -75.4167 180° South 230 265 4,300 -480 Descending Philadelphia TRACON
12:43PM 39.9833 -75.4000 169° South 222 255 4,100 -180 Descending Philadelphia TRACON
12:44PM 39.9333 -75.3833 166° South 204 235 4,000 -60 Descending Philadelphia TRACON
12:45PM 39.8833 -75.3500 153° Southeast 208 239 4,000  Level Philadelphia TRACON
12:46PM 39.8333 -75.3333 166° South 205 236 4,000  Level Philadelphia TRACON
12:47PM 39.7667 -75.3000 159° South 204 235 4,000 -480 Level Philadelphia TRACON
12:48PM 39.7167 -75.2667 153° Southeast 206 237 3,100 -720 Descending Philadelphia TRACON
12:49PM 39.7167 -75.2000 90° East 204 235 2,600 -600 Descending Philadelphia TRACON
12:50PM 39.7500 -75.1667 38° Northeast 189 217 2,000 -540 Descending Philadelphia TRACON
12:51PM 39.8000 -75.1833 346° North 164 189 1,600 -600 Descending Philadelphia TRACON
12:52PM 39.8333 -75.2167 322° Northwest 138 159 800 -780 Descending Philadelphia TRACON
12:53PM 39.8667 -75.2333 339° North 118 136 100 -720 Descending Philadelphia TRACON